createdAt,value
2018-05-11T00:00:51.166Z,0.00
2018-05-11T00:01:51.190Z,0.00
2018-05-11T00:02:51.216Z,0.00
2018-05-11T00:03:51.241Z,0.00
2018-05-11T00:04:51.267Z,0.00
2018-05-11T00:05:51.298Z,0.00
2018-05-11T00:06:51.321Z,0.00
2018-05-11T00:07:51.350Z,0.00
2018-05-11T00:08:51.369Z,0.00
2018-05-11T00:09:51.399Z,0.00
2018-05-11T00:10:51.418Z,0.00
2018-05-11T00:11:51.441Z,0.00
2018-05-11T00:12:51.472Z,0.00
2018-05-11T00:13:51.496Z,0.00
2018-05-11T00:14:51.522Z,0.00
2018-05-11T00:15:51.546Z,0.00
2018-05-11T00:16:51.569Z,0.00
2018-05-11T00:17:51.604Z,0.00
2018-05-11T00:18:51.627Z,0.00
2018-05-11T00:19:51.650Z,0.00
2018-05-11T00:20:51.669Z,0.00
2018-05-11T00:21:51.695Z,0.00
2018-05-11T00:22:51.720Z,0.00
2018-05-11T00:23:51.744Z,0.00
2018-05-11T00:24:51.785Z,0.00
2018-05-11T00:25:51.798Z,0.00
2018-05-11T00:26:51.833Z,0.00
2018-05-11T00:27:51.850Z,0.00
2018-05-11T00:28:51.882Z,0.00
2018-05-11T00:29:51.899Z,0.00
2018-05-11T00:30:51.919Z,0.00
2018-05-11T00:31:51.949Z,0.00
2018-05-11T00:32:51.974Z,0.00
2018-05-11T00:33:52.000Z,0.00
2018-05-11T00:34:52.024Z,0.00
2018-05-11T00:35:52.052Z,0.00
2018-05-11T00:36:52.082Z,0.00
2018-05-11T00:37:52.103Z,0.00
2018-05-11T00:38:52.124Z,0.00
2018-05-11T00:39:52.149Z,0.00
2018-05-11T00:40:52.175Z,0.00
2018-05-11T00:41:52.202Z,0.00
2018-05-11T00:42:52.221Z,0.00
2018-05-11T00:43:52.249Z,0.00
2018-05-11T00:44:52.278Z,0.00
2018-05-11T00:45:52.299Z,0.00
2018-05-11T00:46:52.334Z,0.00
2018-05-11T00:47:52.353Z,0.00
2018-05-11T00:48:52.385Z,0.00
2018-05-11T00:49:52.402Z,0.00
2018-05-11T00:50:52.423Z,0.00
2018-05-11T00:51:52.448Z,0.00
2018-05-11T00:52:52.473Z,0.00
2018-05-11T00:53:52.499Z,0.00
2018-05-11T00:54:52.528Z,0.00
2018-05-11T00:55:52.551Z,0.00
2018-05-11T00:56:52.579Z,0.00
2018-05-11T00:57:52.600Z,0.00
2018-05-11T00:58:52.625Z,0.00
2018-05-11T00:59:52.653Z,0.00
2018-05-11T01:00:52.683Z,0.00
2018-05-11T01:01:52.704Z,0.00
2018-05-11T01:02:52.723Z,0.00
2018-05-11T01:03:52.755Z,0.00
2018-05-11T01:04:52.778Z,0.00
2018-05-11T01:05:52.801Z,0.00
2018-05-11T01:06:52.833Z,0.00
2018-05-11T01:07:52.853Z,0.00
2018-05-11T01:08:52.876Z,0.00
2018-05-11T01:09:52.909Z,0.00
2018-05-11T01:10:52.928Z,0.00
2018-05-11T01:11:52.958Z,0.00
2018-05-11T01:12:52.981Z,0.00
2018-05-11T01:13:53.006Z,0.00
2018-05-11T01:14:53.027Z,0.00
2018-05-11T01:15:53.058Z,0.00
2018-05-11T01:16:53.093Z,0.00
2018-05-11T01:17:53.107Z,0.00
2018-05-11T01:18:53.133Z,0.00
2018-05-11T01:19:53.151Z,0.00
2018-05-11T01:20:53.182Z,0.00
2018-05-11T01:21:53.203Z,0.00
2018-05-11T01:22:53.228Z,0.00
2018-05-11T01:23:53.252Z,0.00
2018-05-11T01:24:53.276Z,0.00
2018-05-11T01:25:53.304Z,0.00
2018-05-11T01:26:53.328Z,0.00
2018-05-11T01:27:53.366Z,0.00
2018-05-11T01:28:53.377Z,0.00
2018-05-11T01:29:53.403Z,0.00
2018-05-11T01:30:53.435Z,0.00
2018-05-11T01:31:53.452Z,0.00
2018-05-11T01:32:53.478Z,0.00
2018-05-11T01:33:53.505Z,0.00
2018-05-11T01:34:53.527Z,0.00
2018-05-11T01:35:53.554Z,0.00
2018-05-11T01:36:53.581Z,0.00
2018-05-11T01:37:53.608Z,0.00
2018-05-11T01:38:53.627Z,0.00
2018-05-11T01:39:53.746Z,0.00
2018-05-11T01:40:53.681Z,0.00
2018-05-11T01:41:53.702Z,0.00
2018-05-11T01:42:53.727Z,0.00
2018-05-11T01:43:53.752Z,0.00
2018-05-11T01:44:53.785Z,0.00
2018-05-11T01:45:53.801Z,0.00
2018-05-11T01:46:53.829Z,0.00
2018-05-11T01:47:53.853Z,0.00
2018-05-11T01:48:53.880Z,0.00
2018-05-11T01:49:53.901Z,0.00
2018-05-11T01:50:53.936Z,0.00
2018-05-11T01:51:53.953Z,0.00
2018-05-11T01:52:53.976Z,0.00
2018-05-11T01:53:54.002Z,0.00
2018-05-11T01:54:54.025Z,0.00
2018-05-11T01:55:54.051Z,0.00
2018-05-11T01:56:54.079Z,0.00
2018-05-11T01:57:54.109Z,0.00
2018-05-11T01:58:54.125Z,0.00
2018-05-11T01:59:54.152Z,0.00
2018-05-11T02:00:54.180Z,0.00
2018-05-11T02:01:54.200Z,0.00
2018-05-11T02:02:54.222Z,0.00
2018-05-11T02:03:54.253Z,0.00
2018-05-11T02:04:54.271Z,0.00
2018-05-11T02:05:54.303Z,0.00
2018-05-11T02:06:54.320Z,0.00
2018-05-11T02:07:54.346Z,0.00
2018-05-11T02:08:54.381Z,0.00
2018-05-11T02:09:54.396Z,0.00
2018-05-11T02:10:54.424Z,0.00
2018-05-11T02:11:54.449Z,0.00
2018-05-11T02:12:54.475Z,0.00
2018-05-11T02:13:54.496Z,0.00
2018-05-11T02:14:54.528Z,0.00
2018-05-11T02:15:54.549Z,0.00
2018-05-11T02:16:54.578Z,0.00
2018-05-11T02:17:54.598Z,0.00
2018-05-11T02:18:54.624Z,0.00
2018-05-11T02:19:54.649Z,0.00
2018-05-11T02:20:54.670Z,0.00
2018-05-11T02:21:54.694Z,0.00
2018-05-11T02:22:54.720Z,0.00
2018-05-11T02:23:54.746Z,0.00
2018-05-11T02:24:54.773Z,0.00
2018-05-11T02:25:54.866Z,0.00
2018-05-11T02:26:54.814Z,0.00
2018-05-11T02:27:54.848Z,0.00
2018-05-11T02:28:54.871Z,0.00
2018-05-11T02:29:54.899Z,0.00
2018-05-11T02:30:54.920Z,0.00
2018-05-11T02:31:54.940Z,0.00
2018-05-11T02:32:54.970Z,0.00
2018-05-11T02:33:55.007Z,0.00
2018-05-11T02:34:55.018Z,0.00
2018-05-11T02:35:55.046Z,0.00
2018-05-11T02:36:55.066Z,0.00
2018-05-11T02:37:55.093Z,0.00
2018-05-11T02:38:55.114Z,0.00
2018-05-11T02:39:55.145Z,0.00
2018-05-11T02:40:55.170Z,0.00
2018-05-11T02:41:55.197Z,0.00
2018-05-11T02:42:55.220Z,0.00
2018-05-11T02:43:55.243Z,0.00
2018-05-11T02:44:55.269Z,0.00
2018-05-11T02:45:55.294Z,0.00
2018-05-11T02:46:55.333Z,0.00
2018-05-11T02:47:55.339Z,4.00
2018-05-11T02:48:55.367Z,4.00
2018-05-11T02:49:55.394Z,4.00
2018-05-11T02:50:55.413Z,4.00
2018-05-11T02:51:55.446Z,4.00
2018-05-11T02:52:55.469Z,0.00
2018-05-11T02:53:55.498Z,4.00
2018-05-11T02:54:55.518Z,4.00
2018-05-11T02:55:55.538Z,4.00
2018-05-11T02:56:55.568Z,4.00
2018-05-11T02:57:55.593Z,8.00
2018-05-11T02:58:55.613Z,4.00
2018-05-11T02:59:55.650Z,4.00
2018-05-11T03:00:55.669Z,8.00
2018-05-11T03:01:55.693Z,8.00
2018-05-11T03:02:55.717Z,8.00
2018-05-11T03:03:55.740Z,8.00
2018-05-11T03:04:55.763Z,12.00
2018-05-11T03:05:55.793Z,8.00
2018-05-11T03:06:55.818Z,12.00
2018-05-11T03:07:55.839Z,12.00
2018-05-11T03:08:55.869Z,16.00
2018-05-11T03:09:55.894Z,16.00
2018-05-11T03:10:55.919Z,16.00
2018-05-11T03:11:55.939Z,16.00
2018-05-11T03:12:55.976Z,24.00
2018-05-11T03:13:55.997Z,24.00
2018-05-11T03:14:56.013Z,28.00
2018-05-11T03:15:56.045Z,28.00
2018-05-11T03:16:56.062Z,32.00
2018-05-11T03:17:56.097Z,36.00
2018-05-11T03:18:56.113Z,40.00
2018-05-11T03:19:56.144Z,40.00
2018-05-11T03:20:56.176Z,48.00
2018-05-11T03:21:56.196Z,52.00
2018-05-11T03:22:56.218Z,56.00
2018-05-11T03:23:56.242Z,64.00
2018-05-11T03:24:56.263Z,72.00
2018-05-11T03:25:56.296Z,76.00
2018-05-11T03:26:56.318Z,84.00
2018-05-11T03:27:56.345Z,96.00
2018-05-11T03:28:56.368Z,104.00
2018-05-11T03:29:56.393Z,112.00
2018-05-11T03:30:56.419Z,124.00
2018-05-11T03:31:56.445Z,132.00
2018-05-11T03:32:56.471Z,144.00
2018-05-11T03:33:56.492Z,156.00
2018-05-11T03:34:56.521Z,168.00
2018-05-11T03:35:56.542Z,180.00
2018-05-11T03:36:56.562Z,192.00
2018-05-11T03:37:56.596Z,204.00
2018-05-11T03:38:56.616Z,224.00
2018-05-11T03:39:56.637Z,240.00
2018-05-11T03:40:56.677Z,252.00
2018-05-11T03:41:56.696Z,264.00
2018-05-11T03:42:56.717Z,284.00
2018-05-11T03:43:56.742Z,308.00
2018-05-11T03:44:56.767Z,328.00
2018-05-11T03:45:56.791Z,352.00
2018-05-11T03:46:56.815Z,372.00
2018-05-11T03:47:56.841Z,392.00
2018-05-11T03:48:56.862Z,416.00
2018-05-11T03:49:56.891Z,444.00
2018-05-11T03:50:56.912Z,472.00
2018-05-11T03:51:56.936Z,512.00
2018-05-11T03:52:56.967Z,552.00
2018-05-11T03:53:56.999Z,592.00
2018-05-11T03:54:57.019Z,640.00
2018-05-11T03:55:57.040Z,688.00
2018-05-11T03:56:57.071Z,740.00
2018-05-11T03:57:57.088Z,796.00
2018-05-11T03:58:57.120Z,848.00
2018-05-11T03:59:57.147Z,912.00
2018-05-11T04:00:57.167Z,980.00
2018-05-11T04:01:57.187Z,1052.00
2018-05-11T04:02:57.210Z,1120.00
2018-05-11T04:03:57.235Z,1184.00
2018-05-11T04:04:57.269Z,1244.00
2018-05-11T04:05:57.293Z,1292.00
2018-05-11T04:06:57.316Z,1340.00
2018-05-11T04:07:57.339Z,1364.00
2018-05-11T04:08:57.361Z,1384.00
2018-05-11T04:09:57.391Z,1404.00
2018-05-11T04:10:57.410Z,1420.00
2018-05-11T04:11:57.440Z,1436.00
2018-05-11T04:12:57.469Z,1444.00
2018-05-11T04:13:57.485Z,1452.00
2018-05-11T04:14:57.519Z,1464.00
2018-05-11T04:15:57.543Z,1472.00
2018-05-11T04:16:57.565Z,1488.00
2018-05-11T04:17:57.590Z,1504.00
2018-05-11T04:18:57.616Z,1528.00
2018-05-11T04:19:57.639Z,1548.00
2018-05-11T04:20:57.659Z,1568.00
2018-05-11T04:21:57.693Z,1588.00
2018-05-11T04:22:57.712Z,1604.00
2018-05-11T04:23:57.735Z,1620.00
2018-05-11T04:24:57.774Z,1636.00
2018-05-11T04:25:57.789Z,1656.00
2018-05-11T04:26:57.814Z,1672.00
2018-05-11T04:27:57.844Z,1696.00
2018-05-11T04:28:57.865Z,1716.00
2018-05-11T04:29:57.890Z,1736.00
2018-05-11T04:30:57.912Z,1756.00
2018-05-11T04:31:57.933Z,1784.00
2018-05-11T04:32:57.968Z,1816.00
2018-05-11T04:33:57.988Z,1848.00
2018-05-11T04:34:58.018Z,1876.00
2018-05-11T04:35:58.040Z,1908.00
2018-05-11T04:36:58.064Z,1924.00
2018-05-11T04:37:58.090Z,1940.00
2018-05-11T04:38:58.116Z,1944.00
2018-05-11T04:39:58.139Z,1944.00
2018-05-11T04:40:58.158Z,1964.00
2018-05-11T04:41:58.188Z,2020.00
2018-05-11T04:42:58.208Z,2100.00
2018-05-11T04:43:58.233Z,2184.00
2018-05-11T04:44:58.264Z,2276.00
2018-05-11T04:45:58.288Z,2392.00
2018-05-11T04:46:58.308Z,2516.00
2018-05-11T04:47:58.337Z,2652.00
2018-05-11T04:48:58.362Z,2772.00
2018-05-11T04:49:58.387Z,2892.00
2018-05-11T04:50:58.408Z,3024.00
2018-05-11T04:51:58.434Z,3160.00
2018-05-11T04:52:58.457Z,3272.00
2018-05-11T04:53:58.485Z,3384.00
2018-05-11T04:54:58.507Z,3480.00
2018-05-11T04:55:58.535Z,3576.00
2018-05-11T04:56:58.558Z,3672.00
2018-05-11T04:57:58.588Z,3760.00
2018-05-11T04:58:58.610Z,3844.00
2018-05-11T04:59:58.637Z,3916.00
2018-05-11T05:00:58.658Z,3992.00
2018-05-11T05:01:58.685Z,4048.00
2018-05-11T05:02:58.708Z,4092.00
2018-05-11T05:03:58.737Z,4128.00
2018-05-11T05:04:58.758Z,4132.00
2018-05-11T05:05:58.783Z,4132.00
2018-05-11T05:06:58.814Z,4148.00
2018-05-11T05:07:58.834Z,4176.00
2018-05-11T05:08:58.860Z,4196.00
2018-05-11T05:09:58.884Z,4204.00
2018-05-11T05:10:58.907Z,4208.00
2018-05-11T05:11:58.937Z,4200.00
2018-05-11T05:12:58.961Z,4196.00
2018-05-11T05:13:58.982Z,4236.00
2018-05-11T05:14:59.017Z,4284.00
2018-05-11T05:15:59.033Z,4312.00
2018-05-11T05:16:59.057Z,4352.00
2018-05-11T05:17:59.082Z,4352.00
2018-05-11T05:18:59.106Z,4344.00
2018-05-11T05:19:59.136Z,4336.00
2018-05-11T05:20:59.162Z,4300.00
2018-05-11T05:21:59.186Z,4308.00
2018-05-11T05:22:59.208Z,4332.00
2018-05-11T05:23:59.232Z,4396.00
2018-05-11T05:24:59.260Z,4444.00
2018-05-11T05:25:59.294Z,4540.00
2018-05-11T05:26:59.309Z,4632.00
2018-05-11T05:27:59.336Z,4716.00
2018-05-11T05:28:59.367Z,4736.00
2018-05-11T05:29:59.385Z,4792.00
2018-05-11T05:30:59.417Z,4828.00
2018-05-11T05:31:59.437Z,4844.00
2018-05-11T05:32:59.474Z,4860.00
2018-05-11T05:33:59.488Z,4904.00
2018-05-11T05:34:59.507Z,4920.00
2018-05-11T05:35:59.545Z,4912.00
2018-05-11T05:36:59.562Z,4904.00
2018-05-11T05:37:59.586Z,4912.00
2018-05-11T05:38:59.612Z,4908.00
2018-05-11T05:39:59.636Z,4924.00
2018-05-11T05:40:59.665Z,4964.00
2018-05-11T05:41:59.686Z,5024.00
2018-05-11T05:42:59.712Z,5076.00
2018-05-11T05:43:59.737Z,5116.00
2018-05-11T05:44:59.782Z,5148.00
2018-05-11T05:45:59.791Z,5172.00
2018-05-11T05:46:59.812Z,5188.00
2018-05-11T05:47:59.836Z,5232.00
2018-05-11T05:48:59.865Z,5308.00
2018-05-11T05:49:59.890Z,5388.00
2018-05-11T05:50:59.917Z,5456.00
2018-05-11T05:52:00.031Z,5528.00
2018-05-11T05:52:59.970Z,5580.00
2018-05-11T05:53:59.997Z,5636.00
2018-05-11T05:55:00.016Z,5696.00
2018-05-11T05:56:00.043Z,5772.00
2018-05-11T05:57:00.074Z,5860.00
2018-05-11T05:58:00.095Z,5960.00
2018-05-11T05:59:00.125Z,6048.00
2018-05-11T06:00:00.174Z,6128.00
2018-05-11T06:01:00.174Z,6148.00
2018-05-11T06:02:00.197Z,6140.00
2018-05-11T06:03:00.225Z,6132.00
2018-05-11T06:04:00.253Z,6100.00
2018-05-11T06:05:00.276Z,6092.00
2018-05-11T06:06:00.304Z,6116.00
2018-05-11T06:07:00.329Z,6132.00
2018-05-11T06:08:00.354Z,6100.00
2018-05-11T06:09:00.385Z,6052.00
2018-05-11T06:10:00.412Z,5988.00
2018-05-11T06:11:00.430Z,5960.00
2018-05-11T06:12:00.456Z,5928.00
2018-05-11T06:13:00.491Z,5896.00
2018-05-11T06:14:00.521Z,5896.00
2018-05-11T06:15:00.537Z,5944.00
2018-05-11T06:16:00.560Z,5936.00
2018-05-11T06:17:00.585Z,6012.00
2018-05-11T06:18:00.610Z,6028.00
2018-05-11T06:19:00.639Z,6076.00
2018-05-11T06:20:00.661Z,6096.00
2018-05-11T06:21:00.695Z,6124.00
2018-05-11T06:22:00.752Z,6252.00
2018-05-11T06:23:00.743Z,6440.00
2018-05-11T06:24:00.770Z,6616.00
2018-05-11T06:25:00.790Z,6860.00
2018-05-11T06:26:00.826Z,6968.00
2018-05-11T06:27:00.845Z,6960.00
2018-05-11T06:28:00.878Z,6976.00
2018-05-11T06:29:00.910Z,6988.00
2018-05-11T06:30:00.939Z,7120.00
2018-05-11T06:31:00.952Z,6932.00
2018-05-11T06:32:00.979Z,6924.00
2018-05-11T06:33:01.002Z,6920.00
2018-05-11T06:34:01.028Z,7076.00
2018-05-11T06:35:01.057Z,6688.00
2018-05-11T06:36:01.086Z,6712.00
2018-05-11T06:37:01.111Z,6856.00
2018-05-11T06:38:01.134Z,7064.00
2018-05-11T06:39:01.159Z,7048.00
2018-05-11T06:40:01.190Z,7040.00
2018-05-11T06:41:01.221Z,6680.00
2018-05-11T06:42:01.247Z,6560.00
2018-05-11T06:43:01.264Z,6604.00
2018-05-11T06:44:01.291Z,6424.00
2018-05-11T06:45:01.316Z,6616.00
2018-05-11T06:46:01.346Z,6644.00
2018-05-11T06:47:01.369Z,6644.00
2018-05-11T06:48:01.397Z,6752.00
2018-05-11T06:49:01.422Z,6524.00
2018-05-11T06:50:01.450Z,6452.00
2018-05-11T06:51:01.479Z,6164.00
2018-05-11T06:52:01.499Z,6168.00
2018-05-11T06:53:01.622Z,6200.00
2018-05-11T06:54:01.548Z,6328.00
2018-05-11T06:55:01.574Z,6540.00
2018-05-11T06:56:01.606Z,6868.00
2018-05-11T06:57:01.628Z,7064.00
2018-05-11T06:58:01.655Z,6280.00
2018-05-11T06:59:01.681Z,5816.00
2018-05-11T07:00:01.717Z,5564.00
2018-05-11T07:01:01.756Z,5536.00
2018-05-11T07:02:01.761Z,5588.00
2018-05-11T07:03:01.794Z,5528.00
2018-05-11T07:04:01.813Z,5480.00
2018-05-11T07:05:01.844Z,5476.00
2018-05-11T07:06:01.865Z,5452.00
2018-05-11T07:07:01.891Z,5408.00
2018-05-11T07:08:02.003Z,5484.00
2018-05-11T07:09:01.945Z,5344.00
2018-05-11T07:10:01.973Z,5400.00
2018-05-11T07:11:01.996Z,5616.00
2018-05-11T07:12:02.015Z,5976.00
2018-05-11T07:13:02.046Z,6160.00
2018-05-11T07:14:02.089Z,6076.00
2018-05-11T07:15:02.092Z,6012.00
2018-05-11T07:16:02.127Z,5876.00
2018-05-11T07:17:02.149Z,5724.00
2018-05-11T07:18:02.172Z,5644.00
2018-05-11T07:19:02.202Z,5556.00
2018-05-11T07:20:02.226Z,5320.00
2018-05-11T07:21:02.249Z,5236.00
2018-05-11T07:22:02.281Z,5320.00
2018-05-11T07:23:02.301Z,5260.00
2018-05-11T07:24:02.327Z,5404.00
2018-05-11T07:25:02.361Z,5396.00
2018-05-11T07:26:02.381Z,5436.00
2018-05-11T07:27:02.408Z,5136.00
2018-05-11T07:28:02.435Z,5208.00
2018-05-11T07:29:02.459Z,5196.00
2018-05-11T07:30:02.480Z,5100.00
2018-05-11T07:31:02.509Z,4864.00
2018-05-11T07:32:02.538Z,4920.00
2018-05-11T07:33:02.572Z,4876.00
2018-05-11T07:34:02.593Z,4964.00
2018-05-11T07:35:02.733Z,4964.00
2018-05-11T07:36:02.638Z,4984.00
2018-05-11T07:37:02.658Z,5000.00
2018-05-11T07:38:02.690Z,5044.00
2018-05-11T07:39:02.719Z,5100.00
2018-05-11T07:40:02.739Z,5132.00
2018-05-11T07:41:02.767Z,5188.00
2018-05-11T07:42:02.798Z,5252.00
2018-05-11T07:43:02.852Z,5400.00
2018-05-11T07:44:02.841Z,5700.00
2018-05-11T07:45:02.870Z,5928.00
2018-05-11T07:46:02.896Z,6028.00
2018-05-11T07:47:02.920Z,6040.00
2018-05-11T07:48:02.949Z,5956.00
2018-05-11T07:49:02.973Z,5944.00
2018-05-11T07:50:02.995Z,6128.00
2018-05-11T07:51:03.021Z,6396.00
2018-05-11T07:52:03.049Z,6608.00
2018-05-11T07:53:03.078Z,6680.00
2018-05-11T07:54:03.102Z,6596.00
2018-05-11T07:55:03.153Z,6624.00
2018-05-11T07:56:03.150Z,6544.00
2018-05-11T07:57:03.179Z,6160.00
2018-05-11T07:58:03.212Z,5984.00
2018-05-11T07:59:03.235Z,5960.00
2018-05-11T08:00:03.261Z,5940.00
2018-05-11T08:01:03.286Z,5820.00
2018-05-11T08:02:03.315Z,5800.00
2018-05-11T08:03:03.422Z,5852.00
2018-05-11T08:04:03.435Z,6028.00
2018-05-11T08:05:03.397Z,6288.00
2018-05-11T08:06:03.410Z,6460.00
2018-05-11T08:07:03.442Z,6556.00
2018-05-11T08:08:03.464Z,6436.00
2018-05-11T08:09:03.492Z,6296.00
2018-05-11T08:10:03.515Z,5996.00
2018-05-11T08:11:03.541Z,6540.00
2018-05-11T08:12:03.571Z,6144.00
2018-05-11T08:13:03.594Z,6144.00
2018-05-11T08:14:03.715Z,6532.00
2018-05-11T08:15:03.647Z,7032.00
2018-05-11T08:16:03.672Z,7828.00
2018-05-11T08:17:03.699Z,8284.00
2018-05-11T08:18:03.724Z,8260.00
2018-05-11T08:19:03.748Z,8292.00
2018-05-11T08:20:03.781Z,8220.00
2018-05-11T08:21:03.804Z,8140.00
2018-05-11T08:22:03.906Z,7416.00
2018-05-11T08:23:03.861Z,6996.00
2018-05-11T08:24:03.879Z,6544.00
2018-05-11T08:25:03.909Z,6456.00
2018-05-11T08:26:03.934Z,6556.00
2018-05-11T08:27:03.962Z,6532.00
2018-05-11T08:28:03.989Z,6912.00
2018-05-11T08:29:04.029Z,7092.00
2018-05-11T08:30:04.041Z,7272.00
2018-05-11T08:31:04.067Z,7700.00
2018-05-11T08:32:04.099Z,7996.00
2018-05-11T08:33:04.117Z,7844.00
2018-05-11T08:34:04.147Z,7488.00
2018-05-11T08:35:04.176Z,6988.00
2018-05-11T08:36:04.205Z,6504.00
2018-05-11T08:37:04.223Z,6484.00
2018-05-11T08:38:04.254Z,6480.00
2018-05-11T08:39:04.278Z,6596.00
2018-05-11T08:40:04.305Z,6700.00
2018-05-11T08:41:04.338Z,6624.00
2018-05-11T08:42:04.362Z,6556.00
2018-05-11T08:43:04.388Z,6820.00
2018-05-11T08:44:04.412Z,7076.00
2018-05-11T08:45:04.440Z,7136.00
2018-05-11T08:46:04.467Z,7248.00
2018-05-11T08:47:04.494Z,7148.00
2018-05-11T08:48:04.513Z,6964.00
2018-05-11T08:49:04.547Z,6772.00
2018-05-11T08:50:04.568Z,6476.00
2018-05-11T08:51:04.595Z,6256.00
2018-05-11T08:52:04.618Z,6452.00
2018-05-11T08:53:04.650Z,6212.00
2018-05-11T08:54:04.685Z,6168.00
2018-05-11T08:55:04.701Z,6160.00
2018-05-11T08:56:04.726Z,6276.00
2018-05-11T08:57:04.764Z,6568.00
2018-05-11T08:58:04.784Z,6792.00
2018-05-11T08:59:04.803Z,6880.00
2018-05-11T09:00:04.838Z,6716.00
2018-05-11T09:01:04.909Z,6532.00
2018-05-11T09:02:04.896Z,6272.00
2018-05-11T09:03:04.930Z,6068.00
2018-05-11T09:04:04.937Z,5976.00
2018-05-11T09:05:04.968Z,5936.00
2018-05-11T09:06:04.994Z,5924.00
2018-05-11T09:07:05.018Z,5988.00
2018-05-11T09:08:05.043Z,5960.00
2018-05-11T09:09:05.074Z,6060.00
2018-05-11T09:10:05.101Z,6272.00
2018-05-11T09:11:05.130Z,6348.00
2018-05-11T09:12:05.148Z,6336.00
2018-05-11T09:13:05.178Z,6412.00
2018-05-11T09:14:05.211Z,6252.00
2018-05-11T09:15:05.237Z,6228.00
2018-05-11T09:16:05.258Z,6212.00
2018-05-11T09:17:05.287Z,6384.00
2018-05-11T09:18:05.315Z,6616.00
2018-05-11T09:19:05.337Z,6812.00
2018-05-11T09:20:05.362Z,6780.00
2018-05-11T09:21:05.390Z,6624.00
2018-05-11T09:22:05.429Z,6544.00
2018-05-11T09:23:05.442Z,6492.00
2018-05-11T09:24:05.473Z,6476.00
2018-05-11T09:25:05.497Z,6412.00
2018-05-11T09:26:05.528Z,6340.00
2018-05-11T09:27:05.550Z,6320.00
2018-05-11T09:28:05.581Z,6332.00
2018-05-11T09:29:05.602Z,6424.00
2018-05-11T09:30:05.636Z,6384.00
2018-05-11T09:31:05.660Z,6372.00
2018-05-11T09:32:05.679Z,6408.00
2018-05-11T09:33:05.711Z,6560.00
2018-05-11T09:34:05.734Z,6800.00
2018-05-11T09:35:05.765Z,7076.00
2018-05-11T09:36:05.791Z,7356.00
2018-05-11T09:37:05.816Z,7652.00
2018-05-11T09:38:05.844Z,7952.00
2018-05-11T09:39:05.866Z,8548.00
2018-05-11T09:40:05.893Z,9228.00
2018-05-11T09:41:05.918Z,9728.00
2018-05-11T09:42:05.948Z,9840.00
2018-05-11T09:43:05.973Z,10120.00
2018-05-11T09:44:06.010Z,10248.00
2018-05-11T09:45:06.028Z,9988.00
2018-05-11T09:46:06.057Z,9836.00
2018-05-11T09:47:06.089Z,9728.00
2018-05-11T09:48:06.107Z,9240.00
2018-05-11T09:49:06.138Z,8808.00
2018-05-11T09:50:06.161Z,8628.00
2018-05-11T09:51:06.196Z,8552.00
2018-05-11T09:52:06.221Z,8556.00
2018-05-11T09:53:06.242Z,8708.00
2018-05-11T09:54:06.267Z,8848.00
2018-05-11T09:55:06.365Z,9080.00
2018-05-11T09:56:06.320Z,9336.00
2018-05-11T09:57:06.351Z,9608.00
2018-05-11T09:58:06.386Z,9660.00
2018-05-11T09:59:06.405Z,9564.00
2018-05-11T10:00:06.431Z,9756.00
2018-05-11T10:01:06.464Z,9840.00
2018-05-11T10:02:06.490Z,9924.00
2018-05-11T10:03:06.515Z,10016.00
2018-05-11T10:04:06.544Z,10204.00
2018-05-11T10:05:06.569Z,10324.00
2018-05-11T10:06:06.594Z,10448.00
2018-05-11T10:07:06.630Z,10480.00
2018-05-11T10:08:06.643Z,10644.00
2018-05-11T10:09:06.726Z,11136.00
2018-05-11T10:10:06.704Z,11180.00
2018-05-11T10:11:06.729Z,10968.00
2018-05-11T10:12:06.758Z,10808.00
2018-05-11T10:13:06.779Z,10772.00
2018-05-11T10:14:06.814Z,10816.00
2018-05-11T10:15:06.844Z,10940.00
2018-05-11T10:16:06.864Z,11264.00
2018-05-11T10:17:06.891Z,11612.00
2018-05-11T10:18:06.920Z,11972.00
2018-05-11T10:19:06.945Z,12404.00
2018-05-11T10:20:06.981Z,12456.00
2018-05-11T10:21:07.003Z,12728.00
2018-05-11T10:22:07.041Z,12732.00
2018-05-11T10:23:07.058Z,12864.00
2018-05-11T10:24:07.084Z,13228.00
2018-05-11T10:25:07.114Z,13928.00
2018-05-11T10:26:07.138Z,14248.00
2018-05-11T10:27:07.169Z,14368.00
2018-05-11T10:28:07.191Z,14520.00
2018-05-11T10:29:07.276Z,14852.00
2018-05-11T10:30:07.258Z,15064.00
2018-05-11T10:31:07.282Z,15196.00
2018-05-11T10:32:07.307Z,15504.00
2018-05-11T10:33:07.338Z,16120.00
2018-05-11T10:34:07.372Z,16848.00
2018-05-11T10:35:07.388Z,17424.00
2018-05-11T10:36:07.420Z,18144.00
2018-05-11T10:37:07.445Z,18272.00
2018-05-11T10:38:07.474Z,17728.00
2018-05-11T10:39:07.503Z,17568.00
2018-05-11T10:40:07.529Z,17632.00
2018-05-11T10:41:07.561Z,17920.00
2018-05-11T10:42:07.587Z,18368.00
2018-05-11T10:43:07.613Z,19264.00
2018-05-11T10:44:07.642Z,20032.00
2018-05-11T10:45:07.671Z,19232.00
2018-05-11T10:46:07.703Z,18560.00
2018-05-11T10:47:07.732Z,18880.00
2018-05-11T10:48:07.759Z,21376.00
2018-05-11T10:49:07.788Z,17344.00
2018-05-11T10:50:07.833Z,16176.00
2018-05-11T10:51:07.847Z,15680.00
2018-05-11T10:52:07.872Z,15840.00
2018-05-11T10:53:07.897Z,15500.00
2018-05-11T10:54:07.938Z,14804.00
2018-05-11T10:55:07.959Z,14304.00
2018-05-11T10:56:08.038Z,14136.00
2018-05-11T10:57:08.023Z,13936.00
2018-05-11T10:58:08.045Z,13944.00
2018-05-11T10:59:08.082Z,14036.00
2018-05-11T11:00:08.105Z,14188.00
2018-05-11T11:01:08.186Z,14660.00
2018-05-11T11:02:08.163Z,14880.00
2018-05-11T11:03:08.193Z,15188.00
2018-05-11T11:04:08.224Z,15632.00
2018-05-11T11:05:08.249Z,15992.00
2018-05-11T11:06:08.281Z,16296.00
2018-05-11T11:07:08.312Z,16560.00
2018-05-11T11:08:08.344Z,16660.00
2018-05-11T11:09:08.368Z,16524.00
2018-05-11T11:10:08.401Z,15556.00
2018-05-11T11:11:08.428Z,15140.00
2018-05-11T11:12:08.457Z,14920.00
2018-05-11T11:13:08.483Z,14800.00
2018-05-11T11:14:08.514Z,14580.00
2018-05-11T11:15:08.540Z,14488.00
2018-05-11T11:16:08.572Z,14620.00
2018-05-11T11:17:08.598Z,15036.00
2018-05-11T11:18:08.628Z,15424.00
2018-05-11T11:19:08.658Z,15700.00
2018-05-11T11:20:08.682Z,15808.00
2018-05-11T11:21:08.723Z,15784.00
2018-05-11T11:22:08.745Z,15772.00
2018-05-11T11:23:08.773Z,15732.00
2018-05-11T11:24:08.802Z,15584.00
2018-05-11T11:25:08.833Z,15336.00
2018-05-11T11:26:08.861Z,14800.00
2018-05-11T11:27:08.891Z,13720.00
2018-05-11T11:28:08.923Z,12580.00
2018-05-11T11:29:08.947Z,11760.00
2018-05-11T11:30:08.980Z,11076.00
2018-05-11T11:31:09.003Z,10596.00
2018-05-11T11:32:09.032Z,10396.00
2018-05-11T11:33:09.067Z,10440.00
2018-05-11T11:34:09.101Z,10532.00
2018-05-11T11:35:09.126Z,10652.00
2018-05-11T11:36:09.155Z,10788.00
2018-05-11T11:37:09.180Z,10944.00
2018-05-11T11:38:09.214Z,11168.00
2018-05-11T11:39:09.236Z,11420.00
2018-05-11T11:40:09.267Z,11620.00
2018-05-11T11:41:09.313Z,11832.00
2018-05-11T11:42:09.354Z,12116.00
2018-05-11T11:43:09.359Z,12312.00
2018-05-11T11:44:09.381Z,12404.00
2018-05-11T11:45:09.412Z,12384.00
2018-05-11T11:46:09.441Z,12360.00
2018-05-11T11:47:09.471Z,12472.00
2018-05-11T11:48:09.496Z,12704.00
2018-05-11T11:49:09.527Z,13172.00
2018-05-11T11:50:09.559Z,13596.00
2018-05-11T11:51:09.586Z,13872.00
2018-05-11T11:52:09.618Z,14068.00
2018-05-11T11:53:09.640Z,14096.00
2018-05-11T11:54:09.671Z,14508.00
2018-05-11T11:55:09.698Z,15036.00
2018-05-11T11:56:09.730Z,15608.00
2018-05-11T11:57:09.756Z,16240.00
2018-05-11T11:58:09.787Z,16908.00
2018-05-11T11:59:09.814Z,17760.00
2018-05-11T12:00:09.849Z,18528.00
2018-05-11T12:01:09.875Z,19392.00
2018-05-11T12:02:09.905Z,19936.00
2018-05-11T12:03:09.935Z,19712.00
2018-05-11T12:04:09.960Z,19232.00
2018-05-11T12:05:09.993Z,18848.00
2018-05-11T12:06:10.019Z,18368.00
2018-05-11T12:07:10.049Z,18176.00
2018-05-11T12:08:10.078Z,18496.00
2018-05-11T12:09:10.115Z,18272.00
2018-05-11T12:10:10.135Z,18688.00
2018-05-11T12:11:10.167Z,18880.00
2018-05-11T12:12:10.199Z,18336.00
2018-05-11T12:13:10.227Z,18368.00
2018-05-11T12:14:10.259Z,18400.00
2018-05-11T12:15:10.284Z,18176.00
2018-05-11T12:16:10.334Z,17888.00
2018-05-11T12:17:10.349Z,17920.00
2018-05-11T12:18:10.372Z,17888.00
2018-05-11T12:19:10.406Z,17792.00
2018-05-11T12:20:10.437Z,17728.00
2018-05-11T12:21:10.466Z,17728.00